Time;durP1;ratioP1;P1;durP2;ratioP2;P2;SDS_P1;SDS_P2;PMS_P1;PMS_P2;Temp;Humidity;BMP_temperature;BMP_pressure;BME280_temperature;BME280_humidity;BME280_pressure;Samples;Min_cycle;Max_cycle;Signal;HPM_P1;HPM_P2
2022/07/24 00:00:58;;;;;;;4.53;3.85;;;;;;;21.97;67.04;101097.69;4959549;28;102257;-53
2022/07/24 00:03:26;;;;;;;4.10;3.72;;;;;;;21.98;67.17;101105.66;4957728;28;104153;-53
2022/07/24 00:05:53;;;;;;;3.83;3.53;;;;;;;21.98;67.12;101096.53;4958463;28;102558;-53
2022/07/24 00:08:19;;;;;;;5.38;3.90;;;;;;;21.98;67.29;101090.97;4957418;28;102163;-54
2022/07/24 00:10:46;;;;;;;5.25;3.60;;;;;;;21.99;66.83;101092.59;4958222;28;102074;-53
2022/07/24 00:13:12;;;;;;;6.88;3.63;;;;;;;21.97;67.01;101092.94;4955920;28;103972;-54
2022/07/24 00:15:40;;;;;;;4.20;3.80;;;;;;;21.97;67.10;101092.13;4958191;28;102134;-53
2022/07/24 00:18:11;;;;;;;4.15;3.70;;;;;;;21.97;66.75;101103.22;4956805;28;101992;-53
2022/07/24 00:20:38;;;;;;;4.00;3.70;;;;;;;21.98;66.97;101104.84;4958188;28;102520;-53
2022/07/24 00:23:04;;;;;;;5.43;3.75;;;;;;;21.97;67.09;101104.03;4950894;28;103951;-53
2022/07/24 00:25:31;;;;;;;4.10;3.67;;;;;;;21.96;66.90;101098.81;4941161;28;102189;-54
2022/07/24 00:27:58;;;;;;;5.25;4.40;;;;;;;21.96;67.05;101099.66;4952479;28;102054;-53
2022/07/24 00:30:24;;;;;;;4.80;3.67;;;;;;;21.97;66.89;101106.00;4950996;28;102838;-53
2022/07/24 00:32:52;;;;;;;6.40;3.40;;;;;;;21.97;67.02;101092.13;4957131;28;104013;-53
2022/07/24 00:35:19;;;;;;;6.43;3.80;;;;;;;21.97;66.97;101104.03;4958617;28;102259;-53
2022/07/24 00:37:46;;;;;;;4.13;3.40;;;;;;;21.97;66.74;101103.22;4956172;28;102511;-53
2022/07/24 00:40:13;;;;;;;3.90;3.50;;;;;;;21.97;66.94;101094.91;4957440;28;102208;-53
2022/07/24 00:42:41;;;;;;;4.78;3.75;;;;;;;21.97;66.78;101092.13;4948851;28;104158;-53
2022/07/24 00:45:08;;;;;;;4.00;3.45;;;;;;;21.96;66.77;101101.59;4949578;28;102226;-54
2022/07/24 00:47:35;;;;;;;5.00;3.85;;;;;;;21.96;66.96;101091.34;4954038;28;102190;-53
2022/07/24 00:50:05;;;;;;;4.90;3.80;;;;;;;21.96;66.80;101084.94;4958364;28;102245;-54
2022/07/24 00:52:32;;;;;;;5.07;3.55;;;;;;;21.97;66.75;101086.59;4950990;28;103912;-54
2022/07/24 00:54:59;;;;;;;4.47;3.65;;;;;;;21.96;66.83;101087.72;4950376;28;102062;-54
2022/07/24 00:57:25;;;;;;;5.65;3.97;;;;;;;21.95;66.77;101078.59;4940726;28;102555;-53
2022/07/24 00:59:52;;;;;;;4.28;3.70;;;;;;;21.95;67.00;101081.38;4952108;28;102236;-53
2022/07/24 01:02:18;;;;;;;4.47;3.47;;;;;;;21.94;67.15;101081.72;4955312;28;104223;-53
2022/07/24 01:04:45;;;;;;;4.55;3.67;;;;;;;21.93;67.21;101069.03;4957418;28;101837;-53
2022/07/24 01:07:13;;;;;;;3.95;3.58;;;;;;;21.92;66.98;101072.94;4957091;28;102221;-54
2022/07/24 01:09:40;;;;;;;4.45;3.50;;;;;;;21.93;67.00;101074.56;4941930;28;102095;-54
2022/07/24 01:12:08;;;;;;;3.65;3.35;;;;;;;21.93;67.37;101075.38;4952676;28;104001;-53
2022/07/24 01:14:35;;;;;;;3.63;3.33;;;;;;;21.93;67.09;101077.34;4938297;28;102464;-53
2022/07/24 01:17:02;;;;;;;4.32;3.78;;;;;;;21.94;66.98;101081.72;4937559;28;102230;-53
2022/07/24 01:19:30;;;;;;;4.20;3.80;;;;;;;21.93;66.96;101063.50;4937961;28;102194;-53
2022/07/24 01:21:58;;;;;;;3.60;3.30;;;;;;;21.94;67.03;101067.88;4951610;28;103951;-54
2022/07/24 01:24:24;;;;;;;4.27;3.73;;;;;;;21.94;66.80;101062.34;4944231;28;101860;-53
2022/07/24 01:26:51;;;;;;;4.25;3.70;;;;;;;21.94;66.88;101065.09;4949727;28;102039;-53
2022/07/24 01:29:17;;;;;;;4.78;3.97;;;;;;;21.94;66.70;101065.09;4954103;28;102349;-53
2022/07/24 01:31:45;;;;;;;4.07;3.65;;;;;;;21.95;66.95;101066.72;4956401;28;103941;-53
2022/07/24 01:34:12;;;;;;;4.88;3.40;;;;;;;21.95;66.76;101061.16;4943511;28;102152;-53
2022/07/24 01:36:40;;;;;;;3.97;3.30;;;;;;;21.95;66.73;101075.03;4937415;28;102124;-53
2022/07/24 01:39:08;;;;;;;5.28;3.67;;;;;;;21.94;66.63;101067.88;4953179;28;102282;-53
2022/07/24 01:41:35;;;;;;;4.82;4.22;;;;;;;21.93;66.46;101063.50;4955646;28;104460;-53
2022/07/24 01:44:03;;;;;;;4.65;3.55;;;;;;;21.93;66.60;101058.75;4956615;28;102136;-53
2022/07/24 01:46:29;;;;;;;4.28;3.55;;;;;;;21.93;66.70;101063.50;4956624;28;102188;-53
2022/07/24 01:48:56;;;;;;;3.92;3.33;;;;;;;21.94;66.56;101062.34;4957657;28;102122;-53
2022/07/24 01:51:22;;;;;;;4.32;3.70;;;;;;;21.93;66.79;101064.28;4955520;28;104072;-53
2022/07/24 01:53:49;;;;;;;4.72;3.60;;;;;;;21.93;66.51;101063.50;4948351;28;102537;-53
2022/07/24 01:56:17;;;;;;;4.13;3.72;;;;;;;21.93;66.85;101063.50;4956215;28;101967;-54
2022/07/24 01:58:43;;;;;;;4.53;4.03;;;;;;;21.93;66.42;101060.72;4953865;28;102123;-53
2022/07/24 02:01:09;;;;;;;3.90;3.50;;;;;;;21.93;66.36;101058.75;4954732;28;104080;-53
2022/07/24 02:03:36;;;;;;;4.40;4.00;;;;;;;21.92;66.34;101056.31;4956917;28;102200;-53
2022/07/24 02:06:04;;;;;;;4.30;3.60;;;;;;;21.91;66.37;101049.16;4957174;28;102371;-54
2022/07/24 02:08:30;;;;;;;4.28;3.80;;;;;;;21.91;66.28;101049.16;4959839;28;102297;-53
2022/07/24 02:10:58;;;;;;;5.70;3.38;;;;;;;21.93;66.36;101061.53;4959545;28;104054;-54
2022/07/24 02:13:29;;;;;;;4.45;4.05;;;;;;;21.93;66.68;101055.19;4957719;28;102413;-53
2022/07/24 02:15:56;;;;;;;5.38;3.90;;;;;;;21.93;65.82;101057.94;4957918;28;102011;-53
2022/07/24 02:18:23;;;;;;;5.55;3.70;;;;;;;21.93;65.75;101055.19;4960151;28;102160;-53
2022/07/24 02:20:50;;;;;;;5.03;4.10;;;;;;;21.92;66.15;101057.13;4958867;28;103958;-53
2022/07/24 02:23:19;;;;;;;4.50;4.10;;;;;;;21.92;66.04;101048.00;4960071;28;102455;-53
2022/07/24 02:25:46;;;;;;;4.63;4.00;;;;;;;21.93;65.80;101044.09;4957775;28;102206;-53
2022/07/24 02:28:14;;;;;;;7.05;4.55;;;;;;;21.93;66.10;101049.63;4961686;28;102328;-53
2022/07/24 02:30:43;;;;;;;5.57;4.13;;;;;;;21.92;66.30;101048.00;4958349;28;103784;-53
2022/07/24 02:33:10;;;;;;;3.90;3.50;;;;;;;21.93;66.09;101046.88;4944643;28;102132;-53
2022/07/24 02:35:39;;;;;;;4.00;3.60;;;;;;;21.92;65.96;101045.22;4947627;28;102285;-53
2022/07/24 02:38:08;;;;;;;5.68;4.00;;;;;;;21.91;65.92;101032.53;4971033;28;102514;-53
2022/07/24 02:40:36;;;;;;;;;;;;;;;21.91;65.67;101040.84;4964546;28;103890;-53
2022/07/24 02:43:02;;;;;;;5.90;4.03;;;;;;;21.91;65.95;101035.28;4959460;28;102483;-53
2022/07/24 02:45:30;;;;;;;4.30;3.90;;;;;;;21.92;65.93;101043.25;4969130;28;102474;-53
2022/07/24 02:47:58;;;;;;;6.35;4.32;;;;;;;21.92;65.61;101045.22;4978648;28;102165;-53
2022/07/24 02:50:30;;;;;;;7.05;4.57;;;;;;;21.91;66.01;101038.06;4968988;28;103966;-53
2022/07/24 02:52:56;;;;;;;6.90;3.85;;;;;;;21.91;66.03;101033.34;4959527;28;102717;-53
2022/07/24 02:55:23;;;;;;;5.07;4.07;;;;;;;21.90;65.65;101036.47;4956995;28;102657;-53
2022/07/24 02:57:50;;;;;;;5.00;3.88;;;;;;;21.93;66.26;101044.09;4961666;28;102121;-53
2022/07/24 03:00:17;;;;;;;6.72;4.20;;;;;;;21.91;66.09;101038.88;4976759;28;104184;-53
2022/07/24 03:02:44;;;;;;;8.98;4.28;;;;;;;21.92;65.99;101050.75;4979034;28;102236;-53
2022/07/24 03:05:13;;;;;;;5.50;4.00;;;;;;;21.91;66.20;101041.66;4970430;28;103124;-53
2022/07/24 03:07:39;;;;;;;5.68;3.75;;;;;;;21.90;66.24;101053.09;4978485;28;102588;-53
2022/07/24 03:10:09;;;;;;;5.80;4.10;;;;;;;21.90;66.42;101048.34;4956291;28;104031;-53
2022/07/24 03:12:36;;;;;;;;;;;;;;;21.91;66.28;101046.38;4978325;28;102296;-53
2022/07/24 03:15:03;;;;;;;5.90;3.88;;;;;;;21.90;66.30;101047.53;4959879;28;102456;-53
2022/07/24 03:17:30;;;;;;;7.28;3.97;;;;;;;21.90;66.42;101045.56;4964687;28;102030;-53
2022/07/24 03:19:57;;;;;;;6.28;3.70;;;;;;;21.92;66.58;101050.75;4959499;28;103804;-53
2022/07/24 03:22:25;;;;;;;7.55;3.80;;;;;;;21.91;66.57;101040.84;4961756;28;102046;-53
2022/07/24 03:24:52;;;;;;;4.78;3.50;;;;;;;21.89;66.67;101035.66;4958283;28;102193;-53
2022/07/24 03:27:18;;;;;;;4.28;3.70;;;;;;;21.89;67.02;101041.19;4969294;28;102348;-53
2022/07/24 03:29:45;;;;;;;5.30;3.58;;;;;;;21.90;67.19;101034.50;4938484;28;103949;-53
2022/07/24 03:32:12;;;;;;;4.72;3.58;;;;;;;21.90;67.01;101030.91;4942904;28;101948;-53
2022/07/24 03:34:38;;;;;;;5.03;3.90;;;;;;;21.90;66.67;101036.47;4940916;28;102088;-53
2022/07/24 03:37:05;;;;;;;4.88;3.80;;;;;;;21.91;67.07;101032.53;4949683;28;102150;-53
2022/07/24 03:39:33;;;;;;;5.22;3.95;;;;;;;21.93;66.95;101025.50;4956098;28;104303;-53
2022/07/24 03:41:59;;;;;;;6.73;4.60;;;;;;;21.92;66.87;101028.59;4958962;28;102509;-54
2022/07/24 03:44:26;;;;;;;6.63;3.78;;;;;;;21.94;67.03;101031.84;4977140;28;102425;-53
2022/07/24 03:46:52;;;;;;;5.80;3.95;;;;;;;21.92;67.06;101023.84;4973154;28;102484;-53
2022/07/24 03:49:20;;;;;;;5.75;3.38;;;;;;;21.93;66.93;101027.47;4958275;28;103923;-53
2022/07/24 03:51:46;;;;;;;4.68;3.70;;;;;;;21.96;66.99;101029.53;4958498;28;102278;-53
2022/07/24 03:54:13;;;;;;;6.20;3.90;;;;;;;21.96;67.00;101029.53;4958153;28;101916;-53
2022/07/24 03:56:42;;;;;;;6.83;4.20;;;;;;;21.96;67.08;101027.59;4967530;28;102746;-53
2022/07/24 03:59:09;;;;;;;5.47;3.70;;;;;;;21.97;67.13;101031.19;4940740;28;103938;-53
2022/07/24 04:01:35;;;;;;;4.30;3.60;;;;;;;21.98;66.97;101024.47;4953069;28;102542;-53
2022/07/24 04:04:04;;;;;;;4.63;3.60;;;;;;;21.99;66.98;101023.31;4955764;28;102379;-53
2022/07/24 04:06:32;;;;;;;4.18;3.75;;;;;;;21.99;66.98;101023.31;4951328;28;102191;-53
2022/07/24 04:08:59;;;;;;;3.95;3.55;;;;;;;22.00;67.06;101022.19;4946616;28;103827;-53
2022/07/24 04:11:26;;;;;;;3.55;3.22;;;;;;;21.99;67.15;101023.31;4958629;28;101955;-53
2022/07/24 04:13:54;;;;;;;5.18;3.70;;;;;;;22.01;67.17;101026.56;4951659;28;101984;-53
2022/07/24 04:16:21;;;;;;;3.88;3.47;;;;;;;22.01;67.12;101023.78;4960293;28;102330;-53
2022/07/24 04:18:48;;;;;;;4.20;3.45;;;;;;;22.01;67.09;101027.38;4976811;28;104210;-53
2022/07/24 04:21:14;;;;;;;5.25;3.72;;;;;;;22.03;67.12;101030.63;4977786;28;102607;-53
2022/07/24 04:23:41;;;;;;;4.32;3.63;;;;;;;22.03;67.12;101036.16;4974494;28;101970;-53
2022/07/24 04:26:07;;;;;;;6.10;4.00;;;;;;;22.04;67.28;101037.78;4950942;28;102445;-53
2022/07/24 04:28:34;;;;;;;4.60;3.72;;;;;;;22.05;67.04;101033.84;4947710;28;103945;-54
2022/07/24 04:31:03;;;;;;;5.20;3.70;;;;;;;22.05;67.27;101033.03;4943911;28;102356;-53
2022/07/24 04:33:29;;;;;;;4.28;3.50;;;;;;;22.06;67.22;101029.09;4926843;28;102421;-53
2022/07/24 04:35:56;;;;;;;4.03;3.70;;;;;;;22.07;67.28;101027.97;4936671;28;102270;-53
2022/07/24 04:38:23;;;;;;;4.95;4.03;;;;;;;22.07;67.16;101030.75;4938100;28;103955;-53
2022/07/24 04:40:49;;;;;;;5.03;3.40;;;;;;;22.08;67.14;101026.81;4937629;28;102335;-54
2022/07/24 04:43:16;;;;;;;4.47;3.70;;;;;;;22.09;67.38;101031.19;4948094;28;102226;-53
2022/07/24 04:45:44;;;;;;;4.63;3.70;;;;;;;22.11;67.37;101026.13;4936109;28;102331;-53
2022/07/24 04:48:13;;;;;;;4.20;3.80;;;;;;;22.13;67.05;101017.47;4937437;28;103986;-54
2022/07/24 04:50:40;;;;;;;6.67;3.57;;;;;;;22.14;66.83;101019.91;4919024;28;102445;-53
2022/07/24 04:53:06;;;;;;;3.47;3.17;;;;;;;22.15;66.79;101023.53;4918698;28;102179;-53
2022/07/24 04:55:34;;;;;;;5.05;3.38;;;;;;;22.16;66.82;101023.16;4929876;28;102392;-53
2022/07/24 04:58:02;;;;;;;3.60;3.30;;;;;;;22.17;67.23;101022.00;4918313;28;104069;-53
2022/07/24 05:00:28;;;;;;;4.40;3.72;;;;;;;22.18;66.72;101020.88;4924015;28;102450;-53
2022/07/24 05:02:55;;;;;;;4.45;3.38;;;;;;;22.20;66.88;101024.09;4929340;28;102052;-53
2022/07/24 05:05:23;;;;;;;3.72;3.22;;;;;;;22.21;66.80;101025.72;4920461;28;102249;-53
2022/07/24 05:07:51;;;;;;;3.88;3.47;;;;;;;22.25;67.03;101026.69;4936130;28;104594;-53
2022/07/24 05:10:18;;;;;;;5.40;3.67;;;;;;;22.26;66.74;101031.06;4926936;28;102110;-53
2022/07/24 05:12:44;;;;;;;6.03;3.53;;;;;;;22.28;66.80;101020.41;4918294;28;102240;-53
2022/07/24 05:15:11;;;;;;;7.00;3.92;;;;;;;22.29;67.05;101021.25;4936537;28;102559;-53
2022/07/24 05:17:38;;;;;;;5.32;3.42;;;;;;;22.29;66.88;101022.06;4937046;28;104276;-53
2022/07/24 05:20:07;;;;;;;6.18;4.00;;;;;;;22.31;67.11;101016.97;4936619;28;102164;-53
2022/07/24 05:22:37;;;;;;;5.18;3.63;;;;;;;22.34;66.85;101017.44;4933015;28;102083;-53
2022/07/24 05:25:05;;;;;;;5.33;4.07;;;;;;;22.36;66.94;101015.13;4928183;28;102239;-53
2022/07/24 05:27:32;;;;;;;4.22;3.53;;;;;;;22.38;66.93;101012.81;4928805;28;104094;-53
2022/07/24 05:29:58;;;;;;;4.72;4.15;;;;;;;22.39;67.04;101014.44;4937642;28;102203;-53
2022/07/24 05:32:25;;;;;;;4.72;3.95;;;;;;;22.39;66.91;101020.78;4934552;28;102713;-53
2022/07/24 05:34:51;;;;;;;5.93;3.95;;;;;;;22.41;66.94;101012.13;4937550;28;102246;-53
2022/07/24 05:37:19;;;;;;;4.10;3.70;;;;;;;22.46;66.59;101014.69;4936939;28;104131;-53
2022/07/24 05:39:47;;;;;;;4.20;3.45;;;;;;;22.48;64.29;101017.94;4933774;28;102311;-53
2022/07/24 05:42:14;;;;;;;6.20;3.87;;;;;;;22.50;65.95;101010.06;4933976;28;102560;-54
2022/07/24 05:44:43;;;;;;;3.72;3.25;;;;;;;22.50;65.54;101015.59;4937432;28;102411;-53
2022/07/24 05:47:09;;;;;;;3.78;3.40;;;;;;;22.51;65.62;101020.00;4933736;28;103902;-53
2022/07/24 05:49:36;;;;;;;3.85;3.47;;;;;;;22.56;64.30;101019.78;4935991;28;102213;-54
2022/07/24 05:52:03;;;;;;;4.78;3.00;;;;;;;22.58;64.97;101020.25;4930782;28;104583;-53
2022/07/24 05:54:31;;;;;;;4.68;3.70;;;;;;;22.60;63.77;101020.69;4934200;28;102412;-53
2022/07/24 05:56:59;;;;;;;3.80;3.28;;;;;;;22.62;63.48;101018.41;4934889;28;103895;-54
2022/07/24 05:59:26;;;;;;;3.33;3.13;;;;;;;22.65;64.19;101014.94;4927778;28;102173;-53
2022/07/24 06:01:53;;;;;;;3.90;3.13;;;;;;;22.64;63.35;101018.84;4925594;28;102202;-53
2022/07/24 06:04:19;;;;;;;3.25;3.05;;;;;;;22.68;62.90;101027.28;4937848;28;102794;-53
2022/07/24 06:06:47;;;;;;;3.00;2.70;;;;;;;22.70;63.12;101025.81;4933107;28;103823;-53
2022/07/24 06:09:13;;;;;;;3.58;2.92;;;;;;;22.73;62.95;101013.22;4935875;28;102175;-53
2022/07/24 06:11:40;;;;;;;4.60;2.78;;;;;;;22.74;63.04;101020.38;4935465;28;102215;-53
2022/07/24 06:14:08;;;;;;;2.70;2.50;;;;;;;22.73;63.20;101019.56;4932177;28;102075;-53
2022/07/24 06:16:48;;;;;;;3.25;2.95;;;;;;;22.73;62.89;101014.00;4931735;28;104056;-53
2022/07/24 06:19:15;;;;;;;3.22;2.92;;;;;;;22.74;63.21;101010.06;4929925;28;102838;-54
2022/07/24 06:21:43;;;;;;;3.58;3.22;;;;;;;22.76;63.03;101018.06;4936236;28;102018;-53
2022/07/24 06:24:09;;;;;;;3.45;3.10;;;;;;;22.77;62.70;101014.94;4937966;28;102442;-53
2022/07/24 06:26:36;;;;;;;3.40;3.08;;;;;;;22.77;62.82;101008.59;4930231;28;103975;-53
2022/07/24 06:29:03;;;;;;;5.40;3.15;;;;;;;22.79;62.71;101011.78;4947905;28;102154;-53
2022/07/24 06:31:31;;;;;;;2.85;2.25;;;;;;;22.80;62.48;101013.44;4942280;28;102449;-53
2022/07/24 06:33:57;;;;;;;3.13;2.70;;;;;;;22.82;62.24;101016.66;4954523;28;102846;-53
2022/07/24 06:36:25;;;;;;;2.93;2.73;;;;;;;22.84;62.44;101008.00;4947990;28;104226;-53
2022/07/24 06:38:52;;;;;;;2.83;2.60;;;;;;;22.81;62.95;101017.03;4954840;28;102010;-53
2022/07/24 06:41:18;;;;;;;4.25;3.08;;;;;;;22.81;63.22;101008.69;4948182;28;102132;-53
2022/07/24 06:43:45;;;;;;;3.00;2.80;;;;;;;22.79;63.71;101007.09;4955457;28;102207;-53
2022/07/24 06:46:11;;;;;;;5.15;2.38;;;;;;;22.81;62.88;101003.16;4949554;28;103945;-56
2022/07/24 06:48:39;;;;;;;4.10;2.50;;;;;;;22.82;63.71;101007.53;4938768;28;102373;-54
2022/07/24 06:51:06;;;;;;;4.63;3.00;;;;;;;22.79;63.59;101004.31;4955143;28;102512;-53
2022/07/24 06:53:32;;;;;;;3.15;2.78;;;;;;;22.83;63.51;101007.19;4958483;28;102122;-53
2022/07/24 06:56:00;;;;;;;2.75;2.50;;;;;;;22.84;63.06;100999.69;4957763;28;103977;-53
2022/07/24 06:58:28;;;;;;;3.58;2.67;;;;;;;22.84;63.55;101002.47;4951070;28;102514;-53
2022/07/24 07:00:54;;;;;;;2.90;2.70;;;;;;;22.84;63.20;101005.22;4957497;28;102426;-53
2022/07/24 07:03:21;;;;;;;2.85;2.65;;;;;;;22.86;62.74;100997.34;4959129;28;102175;-53
2022/07/24 07:05:49;;;;;;;3.60;2.88;;;;;;;22.87;62.42;101007.31;4953912;28;104152;-53
2022/07/24 07:08:15;;;;;;;3.53;2.90;;;;;;;22.84;63.67;100997.72;4948565;28;102391;-54
2022/07/24 07:10:42;;;;;;;3.10;2.80;;;;;;;22.87;62.74;101012.88;4957553;28;101969;-54
2022/07/24 07:13:12;;;;;;;4.53;2.97;;;;;;;22.89;62.79;101002.22;4958974;28;102088;-54
2022/07/24 07:15:38;;;;;;;3.22;2.65;;;;;;;22.88;62.90;101004.19;4956534;28;104055;-54
2022/07/24 07:18:07;;;;;;;3.55;2.60;;;;;;;22.91;62.40;101008.22;4957867;28;102321;-53
2022/07/24 07:20:35;;;;;;;6.32;2.55;;;;;;;22.93;62.47;101000.38;4957703;28;102181;-54
2022/07/24 07:23:02;;;;;;;2.83;2.53;;;;;;;22.91;63.06;100997.13;4953096;28;102430;-53
2022/07/24 07:25:29;;;;;;;2.53;2.33;;;;;;;22.92;63.16;101004.31;4956819;28;104163;-53
2022/07/24 07:27:55;;;;;;;2.90;2.60;;;;;;;22.93;62.51;100994.84;4957242;28;102623;-53
2022/07/24 07:30:22;;;;;;;2.80;2.42;;;;;;;22.97;62.63;100992.97;4955700;28;102147;-53
2022/07/24 07:32:49;;;;;;;3.80;3.33;;;;;;;22.97;62.45;100990.19;4954874;28;102436;-53
2022/07/24 07:35:19;;;;;;;3.15;2.70;;;;;;;22.97;62.27;100998.53;4946808;28;103982;-53
2022/07/24 07:37:46;;;;;;;3.17;2.88;;;;;;;22.96;62.42;100999.69;4955247;28;102124;-53
2022/07/24 07:40:14;;;;;;;2.92;2.72;;;;;;;22.96;62.37;100994.94;4939303;28;103246;-53
2022/07/24 07:42:41;;;;;;;2.90;2.70;;;;;;;22.95;62.61;100998.09;4954297;28;102521;-53
2022/07/24 07:45:08;;;;;;;3.42;2.28;;;;;;;22.97;62.43;100992.97;4956993;28;103900;-53
2022/07/24 07:47:36;;;;;;;3.10;2.80;;;;;;;22.99;62.42;100991.47;4955595;28;102008;-54
2022/07/24 07:50:03;;;;;;;3.25;2.47;;;;;;;22.97;62.67;100990.19;4952351;28;101971;-53
2022/07/24 07:52:30;;;;;;;2.60;2.40;;;;;;;22.99;62.13;100976.78;4944953;28;102185;-54
2022/07/24 07:54:57;;;;;;;2.50;2.30;;;;;;;22.99;62.46;100976.78;4942658;28;103981;-53
2022/07/24 07:57:25;;;;;;;3.00;2.80;;;;;;;22.98;62.49;100976.00;4951903;28;102685;-53
2022/07/24 07:59:52;;;;;;;2.83;2.60;;;;;;;23.00;62.30;100978.41;4955689;28;101968;-53
2022/07/24 08:02:19;;;;;;;3.92;2.30;;;;;;;23.02;62.23;100984.44;4958177;28;102533;-53
2022/07/24 08:04:45;;;;;;;4.00;2.75;;;;;;;23.04;62.11;100976.53;4948789;28;103804;-53
2022/07/24 08:07:12;;;;;;;2.40;2.20;;;;;;;23.04;62.46;100968.22;4935347;28;102920;-53
2022/07/24 08:09:39;;;;;;;2.60;2.40;;;;;;;23.03;62.08;100961.06;4934611;28;103828;-54
2022/07/24 08:12:06;;;;;;;2.40;2.20;;;;;;;23.06;62.06;100967.88;4935966;28;103557;-54
2022/07/24 08:14:34;;;;;;;3.13;2.63;;;;;;;23.04;62.23;100979.31;4936751;28;103965;-53
2022/07/24 08:17:04;;;;;;;2.63;2.42;;;;;;;23.02;62.32;100973.31;4925242;28;102188;-53
2022/07/24 08:19:30;;;;;;;4.10;2.80;;;;;;;23.01;62.47;100975.28;4920676;28;102424;-54
2022/07/24 08:21:57;;;;;;;2.95;2.67;;;;;;;23.03;62.58;100970.19;4928764;28;102182;-53
2022/07/24 08:24:24;;;;;;;2.30;2.10;;;;;;;23.06;62.22;100973.44;4919717;28;104003;-53
2022/07/24 08:26:50;;;;;;;2.97;2.67;;;;;;;23.06;62.31;100971.47;4922305;28;102404;-53
2022/07/24 08:29:18;;;;;;;3.75;2.10;;;;;;;23.05;62.00;100969.84;4943490;28;102367;-53
2022/07/24 08:31:46;;;;;;;1.98;1.88;;;;;;;23.06;62.21;100967.88;4946127;28;102553;-53
2022/07/24 08:34:12;;;;;;;3.47;2.57;;;;;;;23.05;62.24;100969.84;4951341;28;104038;-53
2022/07/24 08:36:39;;;;;;;4.00;2.70;;;;;;;23.04;62.14;100959.88;4950654;28;102290;-53
2022/07/24 08:39:05;;;;;;;2.95;2.63;;;;;;;23.04;62.37;100971.00;4955030;28;102089;-53
2022/07/24 08:41:33;;;;;;;2.30;2.10;;;;;;;23.04;62.38;100968.22;4956310;28;102218;-53
2022/07/24 08:44:01;;;;;;;2.58;2.38;;;;;;;23.06;61.93;100965.91;4956354;28;103951;-53
2022/07/24 08:46:28;;;;;;;2.50;2.30;;;;;;;23.06;62.16;100971.47;4953170;28;102422;-54
2022/07/24 08:48:57;;;;;;;3.03;2.38;;;;;;;23.07;62.21;100964.75;4941332;28;102329;-54
2022/07/24 08:51:31;;;;;;;3.05;2.63;;;;;;;23.06;62.37;100965.91;4948697;28;102226;-53
2022/07/24 08:53:58;;;;;;;3.30;2.33;;;;;;;23.05;62.39;100964.31;4956689;28;104183;-53
2022/07/24 08:56:25;;;;;;;2.50;2.30;;;;;;;23.08;61.85;100962.78;4954363;28;102337;-53
2022/07/24 08:58:53;;;;;;;2.40;2.20;;;;;;;23.09;61.49;100956.09;4947393;28;102111;-53
2022/07/24 09:01:20;;;;;;;2.80;2.55;;;;;;;23.09;61.62;100954.09;4947972;28;102516;-53
2022/07/24 09:03:47;;;;;;;2.78;2.58;;;;;;;23.08;61.91;100962.78;4956793;28;104289;-53
2022/07/24 09:06:16;;;;;;;3.55;2.50;;;;;;;23.07;61.91;100961.97;4956968;28;102413;-53
2022/07/24 09:08:56;;;;;;;2.90;2.65;;;;;;;23.09;61.87;100948.56;4944089;28;103560;-53
2022/07/24 09:11:23;;;;;;;2.65;2.30;;;;;;;23.09;61.81;100953.31;4943081;28;102037;-53
2022/07/24 09:16:42;;;;;;;3.30;2.83;;;;;;;23.06;62.23;100938.16;4948970;28;102237;-53
2022/07/24 09:19:09;;;;;;;2.90;2.70;;;;;;;23.04;62.30;100946.00;4942870;28;102441;-53
2022/07/24 09:21:39;;;;;;;3.33;3.03;;;;;;;23.02;62.53;100937.25;4950831;28;102151;-53
2022/07/24 09:24:13;;;;;;;2.90;2.70;;;;;;;23.02;62.89;100931.69;4954349;28;103870;-54
2022/07/24 09:26:44;;;;;;;4.07;3.30;;;;;;;23.03;62.47;100936.06;4957055;28;102176;-53
2022/07/24 09:29:12;;;;;;;2.75;2.55;;;;;;;23.06;62.19;100938.16;4947273;28;102376;-54
2022/07/24 09:31:49;;;;;;;3.00;2.72;;;;;;;23.03;62.86;100939.66;4938344;28;102358;-53
2022/07/24 09:34:16;;;;;;;2.60;2.40;;;;;;;23.02;62.58;100937.25;4936952;28;104050;-53
2022/07/24 09:36:55;;;;;;;3.03;2.75;;;;;;;23.01;63.57;100930.88;4941095;28;102371;-53
2022/07/24 09:39:23;;;;;;;3.08;2.88;;;;;;;23.00;64.05;100934.78;4953312;28;102235;-53
2022/07/24 09:41:52;;;;;;;2.67;2.20;;;;;;;23.00;62.99;100931.22;4949047;28;102222;-53
2022/07/24 09:44:19;;;;;;;4.22;3.08;;;;;;;23.02;62.31;100931.69;4948220;28;103895;-53
2022/07/24 09:46:47;;;;;;;5.40;2.50;;;;;;;23.05;62.14;100925.44;4949345;28;101971;-53
2022/07/24 09:49:22;;;;;;;3.13;2.83;;;;;;;23.06;62.49;100927.03;4947995;28;101824;-53
2022/07/24 09:52:10;;;;;;;4.70;2.70;;;;;;;23.05;62.20;100922.66;4938784;28;102262;-53
2022/07/24 09:54:37;;;;;;;3.33;2.42;;;;;;;23.04;62.29;100912.69;4950555;28;103960;-54
2022/07/24 09:57:25;;;;;;;4.37;3.10;;;;;;;23.02;62.57;100917.81;4953290;28;102351;-54
2022/07/24 09:59:53;;;;;;;3.10;2.80;;;;;;;23.02;62.02;100920.59;4950102;28;102395;-54
2022/07/24 10:02:23;;;;;;;2.47;2.27;;;;;;;23.06;62.08;100917.91;4948181;28;102177;-53
2022/07/24 10:04:51;;;;;;;3.20;2.35;;;;;;;23.07;61.80;100909.22;4939036;28;103932;-53
2022/07/24 10:07:22;;;;;;;2.35;2.13;;;;;;;23.08;61.59;100910.88;4949362;28;102207;-53
2022/07/24 10:09:52;;;;;;;3.33;2.63;;;;;;;23.09;61.75;100900.56;4968442;28;102366;-53
2022/07/24 10:12:22;;;;;;;4.15;2.60;;;;;;;23.05;62.05;100908.78;4943328;28;102204;-54
2022/07/24 10:14:51;;;;;;;3.60;2.45;;;;;;;23.04;61.82;100907.16;4945669;28;104696;-53
2022/07/24 10:17:18;;;;;;;2.90;2.17;;;;;;;23.05;61.91;100903.22;4955281;28;102148;-54
2022/07/24 10:19:47;;;;;;;;;;;;;;;23.05;61.86;100905.22;4956500;28;102355;-53
2022/07/24 10:22:17;;;;;;;2.35;2.13;;;;;;;23.06;62.00;100899.28;4957133;28;102263;-53
2022/07/24 10:25:04;;;;;;;2.38;2.08;;;;;;;23.06;61.68;100899.28;4947588;28;104093;-54
2022/07/24 10:27:32;;;;;;;3.08;2.78;;;;;;;23.07;61.60;100900.91;4945560;28;102044;-53
2022/07/24 10:30:01;;;;;;;2.83;2.50;;;;;;;23.06;61.55;100899.28;4958899;28;102029;-53
2022/07/24 10:32:31;;;;;;;4.15;2.38;;;;;;;23.05;61.60;100902.44;4949964;28;101904;-54
2022/07/24 10:35:18;;;;;;;2.17;2.00;;;;;;;23.06;61.42;100892.94;4943750;28;103903;-53
2022/07/24 10:37:58;;;;;;;4.28;2.60;;;;;;;23.00;61.67;100887.63;4948875;28;102665;-53
2022/07/24 10:40:32;;;;;;;3.20;2.90;;;;;;;23.00;61.84;100889.59;4945553;28;102369;-54
2022/07/24 10:43:12;;;;;;;2.45;2.25;;;;;;;23.01;61.24;100897.56;4951913;28;102134;-53
2022/07/24 10:45:40;;;;;;;4.90;2.38;;;;;;;23.03;61.31;100886.91;4955773;28;103993;-53
2022/07/24 10:48:25;;;;;;;3.25;2.30;;;;;;;23.04;61.54;100887.72;4955635;28;102229;-53
2022/07/24 10:51:07;;;;;;;3.58;2.45;;;;;;;23.03;61.69;100883.34;4947340;28;102366;-54
2022/07/24 10:53:49;;;;;;;2.88;2.53;;;;;;;23.01;61.53;100891.22;4946771;28;102543;-54
2022/07/24 10:56:20;;;;;;;2.55;2.35;;;;;;;22.98;63.38;100887.19;4958070;28;103983;-53
2022/07/24 10:59:01;;;;;;;2.65;2.45;;;;;;;22.97;63.59;100890.28;4954891;28;102424;-53
2022/07/24 11:01:47;;;;;;;4.50;2.50;;;;;;;22.96;62.25;100885.91;4953193;28;103798;-54
2022/07/24 11:04:29;;;;;;;3.20;2.78;;;;;;;22.96;62.71;100895.03;4949252;28;102643;-53
2022/07/24 11:07:00;;;;;;;3.35;2.60;;;;;;;22.98;64.36;100897.47;4954022;28;104475;-53
2022/07/24 11:09:29;;;;;;;3.28;2.60;;;;;;;22.96;63.19;100900.59;4955540;28;102127;-53
2022/07/24 11:12:06;;;;;;;2.88;2.58;;;;;;;22.95;64.80;100887.06;4951246;28;102320;-53
2022/07/24 11:14:49;;;;;;;3.10;2.80;;;;;;;22.92;65.25;100893.31;4957587;28;102072;-53
2022/07/24 11:17:41;;;;;;;3.35;3.08;;;;;;;22.91;64.92;100886.13;4944683;28;108023;-54
2022/07/24 11:20:10;;;;;;;3.88;2.70;;;;;;;22.93;65.02;100889.38;4951073;28;102140;-53
2022/07/24 11:22:42;;;;;;;2.40;2.30;;;;;;;22.92;65.27;100885.00;4952284;28;102261;-53
2022/07/24 11:25:16;;;;;;;2.78;2.50;;;;;;;22.91;64.88;100884.16;4954455;28;102669;-53